createdAt,value
2023-04-28T00:00:05.204Z,101193.19
2023-04-28T00:02:32.516Z,101201.97
2023-04-28T00:04:59.690Z,101199.31
2023-04-28T00:07:51.958Z,101189.63
2023-04-28T00:10:22.222Z,101193.13
2023-04-28T00:12:49.310Z,101187.81
2023-04-28T00:15:16.268Z,101185.09
2023-04-28T00:18:16.194Z,101183.38
2023-04-28T00:20:44.171Z,101181.63
2023-04-28T00:23:11.342Z,101177.22
2023-04-28T00:25:38.496Z,101178.97
2023-04-28T00:28:05.646Z,101176.25
2023-04-28T00:30:36.207Z,101180.66
2023-04-28T00:33:06.472Z,101182.38
2023-04-28T00:35:33.966Z,101179.72
2023-04-28T00:38:01.588Z,101178.78
2023-04-28T00:40:36.258Z,101182.31
2023-04-28T00:43:06.478Z,101181.38
2023-04-28T00:45:33.519Z,101172.56
2023-04-28T00:48:03.942Z,101169.91
2023-04-28T00:50:31.013Z,101167.28
2023-04-28T00:53:03.308Z,101172.53
2023-04-28T00:55:35.487Z,101169.00
2023-04-28T00:58:02.949Z,101170.75
2023-04-28T01:00:30.055Z,101169.00
2023-04-28T01:02:57.842Z,101179.50
2023-04-28T01:05:25.989Z,101170.63
2023-04-28T01:07:53.287Z,101172.28
2023-04-28T01:10:20.822Z,101177.56
2023-04-28T01:12:48.329Z,101175.78
2023-04-28T01:15:19.709Z,101181.91
2023-04-28T01:17:54.352Z,101168.81
2023-04-28T01:20:21.632Z,101173.22
2023-04-28T01:22:48.969Z,101167.94
2023-04-28T01:25:16.272Z,101164.41
2023-04-28T01:28:08.943Z,101174.03
2023-04-28T01:30:38.685Z,101169.63
2023-04-28T01:33:11.967Z,101165.19
2023-04-28T01:35:38.966Z,101159.03
2023-04-28T01:38:31.105Z,101161.66
2023-04-28T01:41:00.235Z,101164.28
2023-04-28T01:43:30.321Z,101153.78
2023-04-28T01:45:58.928Z,101143.34
2023-04-28T01:48:25.908Z,101146.06
2023-04-28T01:50:52.923Z,101156.59
2023-04-28T01:53:35.421Z,101163.63
2023-04-28T01:56:05.086Z,101159.28
2023-04-28T01:58:34.133Z,101161.06
2023-04-28T02:01:01.419Z,101161.06
2023-04-28T02:03:28.959Z,101164.56
2023-04-28T02:05:59.274Z,101159.31
2023-04-28T02:08:27.050Z,101160.19
2023-04-28T02:11:04.317Z,101158.44
2023-04-28T02:13:31.571Z,101166.31
2023-04-28T02:16:01.184Z,101166.34
2023-04-28T02:18:31.418Z,101165.47
2023-04-28T02:21:11.313Z,101163.69
2023-04-28T02:23:38.544Z,101169.84
2023-04-28T02:26:28.166Z,101168.94
2023-04-28T02:28:55.103Z,101168.91
2023-04-28T02:31:31.846Z,101169.72
2023-04-28T02:33:58.844Z,101172.38
2023-04-28T02:36:32.898Z,101174.97
2023-04-28T02:39:07.549Z,101178.44
2023-04-28T02:41:38.125Z,101175.81
2023-04-28T02:44:08.424Z,101169.72
2023-04-28T02:46:36.441Z,101170.59
2023-04-28T02:49:04.452Z,101171.41
2023-04-28T02:51:34.387Z,101160.84
2023-04-28T02:54:01.536Z,101166.94
2023-04-28T02:56:30.319Z,101168.69
2023-04-28T02:58:57.786Z,101169.53
2023-04-28T03:01:24.877Z,101180.00
2023-04-28T03:03:54.776Z,101186.00
2023-04-28T03:06:25.024Z,101181.63
2023-04-28T03:08:58.742Z,101178.97
2023-04-28T03:11:27.154Z,101172.00
2023-04-28T03:13:56.188Z,101162.31
2023-04-28T03:16:23.171Z,101157.88
2023-04-28T03:19:13.240Z,101153.47
2023-04-28T03:21:43.659Z,101152.59
2023-04-28T03:24:41.608Z,101153.44
2023-04-28T03:27:08.964Z,101161.31
2023-04-28T03:29:37.056Z,101166.47
2023-04-28T03:32:10.517Z,101151.59
2023-04-28T03:34:37.889Z,101146.28
2023-04-28T03:37:05.163Z,101138.47
2023-04-28T03:42:41.750Z,101146.13
2023-04-28T03:45:11.343Z,101155.72
2023-04-28T03:47:38.604Z,101164.53
2023-04-28T03:50:05.894Z,101162.75
2023-04-28T03:52:34.015Z,101155.78
2023-04-28T03:55:04.330Z,101152.25
2023-04-28T03:58:05.988Z,101144.38
2023-04-28T04:00:34.625Z,101131.13
2023-04-28T04:03:29.489Z,101139.09
2023-04-28T04:06:21.582Z,101136.44
2023-04-28T04:08:49.851Z,101143.44
2023-04-28T04:11:16.984Z,101140.81
2023-04-28T04:13:50.369Z,101145.22
2023-04-28T04:16:31.218Z,101141.81
2023-04-28T04:19:00.421Z,101154.16
2023-04-28T04:21:58.709Z,101155.94
2023-04-28T04:28:06.880Z,101147.34
2023-04-28T04:30:39.542Z,101149.09
2023-04-28T04:33:20.460Z,101141.25
2023-04-28T04:35:50.191Z,101149.22
2023-04-28T04:38:29.655Z,101151.84
2023-04-28T04:40:57.900Z,101155.34
2023-04-28T04:43:25.599Z,101155.59
2023-04-28T04:45:53.541Z,101142.41
2023-04-28T04:48:20.613Z,101151.19
2023-04-28T04:51:13.027Z,101157.34
2023-04-28T04:53:52.366Z,101163.44
2023-04-28T04:56:20.151Z,101161.72
2023-04-28T04:58:53.572Z,101146.81
2023-04-28T05:02:10.658Z,101138.06
2023-04-28T05:04:38.348Z,101137.31
2023-04-28T05:07:12.388Z,101147.88
2023-04-28T05:09:40.677Z,101161.91
2023-04-28T05:12:07.917Z,101171.53
2023-04-28T05:17:51.196Z,101161.03
2023-04-28T05:20:27.536Z,101162.78
2023-04-28T05:22:58.020Z,101157.53
2023-04-28T05:25:25.138Z,101164.53
2023-04-28T05:27:52.554Z,101162.78
2023-04-28T05:30:22.843Z,101153.19
2023-04-28T05:32:50.711Z,101156.78
2023-04-28T05:35:17.842Z,101161.16
2023-04-28T05:37:45.644Z,101172.59
2023-04-28T05:40:12.881Z,101177.88
2023-04-28T05:42:40.173Z,101184.03
2023-04-28T05:45:10.772Z,101184.94
2023-04-28T05:48:30.473Z,101178.81
2023-04-28T05:50:58.271Z,101176.25
2023-04-28T05:53:25.972Z,101179.81
2023-04-28T05:55:53.626Z,101192.16
2023-04-28T05:58:21.383Z,101209.75
2023-04-28T06:00:48.842Z,101212.38
2023-04-28T06:03:19.509Z,101215.91
2023-04-28T06:08:35.459Z,101198.47
2023-04-28T06:11:04.934Z,101208.16
2023-04-28T06:13:33.173Z,101213.47
2023-04-28T06:16:09.511Z,101222.34
2023-04-28T06:18:36.900Z,101225.94
2023-04-28T06:21:14.811Z,101229.47
2023-04-28T06:23:42.837Z,101228.63
2023-04-28T06:26:10.536Z,101225.22
2023-04-28T06:28:42.567Z,101217.31
2023-04-28T06:31:18.725Z,101213.81
2023-04-28T06:33:55.193Z,101204.19
2023-04-28T06:36:23.640Z,101194.53
2023-04-28T06:38:53.726Z,101192.81
2023-04-28T06:41:51.684Z,101200.72
2023-04-28T06:44:21.076Z,101210.47
2023-04-28T06:46:51.828Z,101212.25
2023-04-28T06:49:39.217Z,101203.50
2023-04-28T06:52:11.107Z,101207.03
2023-04-28T06:54:38.758Z,101210.56
2023-04-28T06:59:52.843Z,101222.94
2023-04-28T07:02:19.995Z,101225.56
2023-04-28T07:05:13.626Z,101232.63
2023-04-28T07:07:46.262Z,101220.28
2023-04-28T07:10:19.743Z,101229.09
2023-04-28T07:12:46.944Z,101222.94
2023-04-28T07:15:13.904Z,101233.50
2023-04-28T07:17:41.135Z,101237.91
2023-04-28T07:20:08.616Z,101214.16
2023-04-28T07:22:41.539Z,101227.34
2023-04-28T07:25:08.758Z,101229.09
2023-04-28T07:27:48.909Z,101232.63
2023-04-28T07:30:27.266Z,101243.19
2023-04-28T07:33:07.719Z,101243.16
2023-04-28T07:35:38.022Z,101229.97
2023-04-28T07:38:05.179Z,101223.81
2023-04-28T07:40:32.412Z,101236.09
2023-04-28T07:42:59.358Z,101249.31
2023-04-28T07:45:26.488Z,101247.50
2023-04-28T07:48:02.663Z,101240.47
2023-04-28T07:50:30.219Z,101245.69
2023-04-28T07:53:01.308Z,101243.84
2023-04-28T07:55:28.283Z,101243.84
2023-04-28T07:57:58.359Z,101240.31
2023-04-28T08:00:25.720Z,101235.81
2023-04-28T08:02:52.967Z,101227.78
2023-04-28T08:05:21.032Z,101231.97
2023-04-28T08:07:48.501Z,101222.13
2023-04-28T08:10:15.658Z,101221.19
2023-04-28T08:12:43.180Z,101220.22
2023-04-28T08:15:17.860Z,101217.44
2023-04-28T08:17:45.791Z,101212.03
2023-04-28T08:20:15.600Z,101218.97
2023-04-28T08:22:42.938Z,101207.25
2023-04-28T08:25:11.028Z,101209.00
2023-04-28T08:27:40.198Z,101204.53
2023-04-28T08:30:13.565Z,101204.44
2023-04-28T08:35:21.692Z,101204.22
2023-04-28T08:37:50.101Z,101205.84
2023-04-28T08:40:17.329Z,101200.34
2023-04-28T08:42:46.296Z,101196.56
2023-04-28T08:45:17.215Z,101191.00
2023-04-28T08:47:50.265Z,101192.50
2023-04-28T08:50:22.483Z,101198.59
2023-04-28T08:52:52.328Z,101190.53
2023-04-28T08:55:19.551Z,101186.88
2023-04-28T09:00:55.272Z,101188.81
2023-04-28T09:03:22.493Z,101176.19
2023-04-28T09:05:50.875Z,101176.09
2023-04-28T09:08:21.657Z,101180.25
2023-04-28T09:11:10.891Z,101168.38
2023-04-28T09:13:37.864Z,101171.75
2023-04-28T09:16:05.197Z,101168.31
2023-04-28T09:18:35.581Z,101171.91
2023-04-28T09:21:10.434Z,101161.38
2023-04-28T09:24:02.527Z,101161.34
2023-04-28T09:26:48.619Z,101167.19
2023-04-28T09:29:15.671Z,101160.81
2023-04-28T09:31:46.756Z,101153.59
2023-04-28T09:34:14.650Z,101157.06
2023-04-28T09:36:44.484Z,101156.16
2023-04-28T09:39:12.429Z,101167.41
2023-04-28T09:41:51.707Z,101163.53
2023-04-28T09:44:21.955Z,101152.53
2023-04-28T09:46:50.770Z,101160.19
2023-04-28T09:49:17.887Z,101157.53
2023-04-28T09:51:45.079Z,101153.66
2023-04-28T09:54:13.098Z,101149.94
2023-04-28T09:56:41.728Z,101152.00
2023-04-28T09:59:14.117Z,101152.56
2023-04-28T10:02:22.475Z,101154.13
2023-04-28T10:04:54.233Z,101147.63
2023-04-28T10:07:22.369Z,101153.44
2023-04-28T10:09:56.192Z,101151.31
2023-04-28T10:12:48.515Z,101142.28
2023-04-28T10:15:19.903Z,101142.78
2023-04-28T10:17:48.351Z,101151.38
2023-04-28T10:20:19.136Z,101153.72
2023-04-28T10:23:05.376Z,101150.53
2023-04-28T10:25:34.746Z,101149.31
2023-04-28T10:28:11.296Z,101144.63
2023-04-28T10:30:41.956Z,101157.69
2023-04-28T10:33:09.684Z,101143.91
2023-04-28T10:35:41.212Z,101146.72
2023-04-28T10:38:11.372Z,101140.88
2023-04-28T10:40:41.530Z,101138.75
2023-04-28T10:43:09.881Z,101126.44
2023-04-28T10:45:50.370Z,101138.16
2023-04-28T10:48:18.087Z,101130.56
2023-04-28T10:51:13.451Z,101137.59
2023-04-28T10:53:47.351Z,101130.09
2023-04-28T10:56:30.356Z,101125.47
2023-04-28T10:58:58.904Z,101118.88
2023-04-28T11:01:32.537Z,101123.22
2023-04-28T11:04:16.084Z,101127.53
2023-04-28T11:09:33.756Z,101119.75
2023-04-28T11:12:06.342Z,101110.03
2023-04-28T11:14:36.117Z,101112.53
2023-04-28T11:17:03.714Z,101109.59
2023-04-28T11:19:34.855Z,101105.09
2023-04-28T11:22:25.847Z,101110.09
2023-04-28T11:24:57.708Z,101108.13
2023-04-28T11:27:26.032Z,101103.81
2023-04-28T11:29:53.081Z,101110.69
2023-04-28T11:32:27.766Z,101082.25
2023-04-28T11:37:35.668Z,101093.31
2023-04-28T11:40:13.544Z,101090.28
2023-04-28T11:42:58.348Z,101097.53
2023-04-28T11:45:26.042Z,101085.75
2023-04-28T11:47:53.009Z,101081.03
2023-04-28T11:50:36.013Z,101071.91
2023-04-28T11:53:06.251Z,101072.81
2023-04-28T11:55:33.688Z,101065.00
2023-04-28T11:58:22.001Z,101066.00
2023-04-28T12:01:09.806Z,101059.53
2023-04-28T12:03:46.903Z,101065.03
2023-04-28T12:06:21.509Z,101061.28
2023-04-28T12:08:48.865Z,101054.97
2023-04-28T12:14:09.055Z,101060.34
2023-04-28T12:16:57.246Z,101058.38
2023-04-28T12:22:11.295Z,101049.03
2023-04-28T12:24:39.717Z,101054.22
2023-04-28T12:27:26.154Z,101054.22
2023-04-28T12:29:53.264Z,101048.88
2023-04-28T12:32:20.892Z,101056.56
2023-04-28T12:34:51.179Z,101044.75
2023-04-28T12:37:22.731Z,101045.22
2023-04-28T12:39:49.898Z,101052.91
2023-04-28T12:42:42.226Z,101042.66
2023-04-28T12:45:12.049Z,101038.63
2023-04-28T12:47:40.084Z,101042.22
2023-04-28T12:50:10.249Z,101037.91
2023-04-28T12:52:37.782Z,101043.09
2023-04-28T12:58:30.710Z,101032.84
2023-04-28T13:01:07.965Z,101042.56
2023-04-28T13:03:35.946Z,101037.09
2023-04-28T13:06:09.067Z,101035.53
2023-04-28T13:08:40.251Z,101034.69
2023-04-28T13:11:21.829Z,101030.38
2023-04-28T13:13:59.308Z,101028.91
2023-04-28T13:16:32.531Z,101030.22
2023-04-28T13:19:01.280Z,101027.38
2023-04-28T13:21:39.361Z,101022.56
2023-04-28T13:24:10.590Z,101024.50
2023-04-28T13:26:47.084Z,101024.91
2023-04-28T13:29:14.766Z,101014.09
2023-04-28T13:31:54.540Z,101017.78
2023-04-28T13:34:24.359Z,101015.06
2023-04-28T13:39:43.841Z,101011.84
2023-04-28T13:42:13.479Z,101011.69
2023-04-28T13:44:40.541Z,101013.78
2023-04-28T13:47:09.478Z,101018.91
2023-04-28T13:50:01.637Z,101017.63
2023-04-28T13:52:28.845Z,101020.84
2023-04-28T13:55:05.364Z,101027.00
2023-04-28T13:57:35.254Z,101014.28
2023-04-28T14:00:02.545Z,101029.88
2023-04-28T14:02:34.525Z,101018.19
2023-04-28T14:05:04.850Z,101018.25
2023-04-28T14:07:32.100Z,101001.06
2023-04-28T14:09:59.273Z,101000.28
2023-04-28T14:12:27.615Z,100997.81
2023-04-28T14:14:54.760Z,100992.44
2023-04-28T14:17:22.124Z,100994.44
2023-04-28T14:19:49.318Z,100986.47
2023-04-28T14:22:16.327Z,100992.50
2023-04-28T14:24:44.357Z,100992.56
2023-04-28T14:27:11.387Z,100980.38
2023-04-28T14:29:38.564Z,100963.06
2023-04-28T14:32:05.613Z,100963.00
2023-04-28T14:34:41.754Z,100966.56
2023-04-28T14:37:15.666Z,100960.69
2023-04-28T14:39:43.456Z,100954.38
2023-04-28T14:42:10.688Z,100960.09
2023-04-28T14:45:05.608Z,100955.06
2023-04-28T14:47:58.168Z,100961.06
2023-04-28T14:50:25.184Z,100957.78
2023-04-28T14:52:52.337Z,100957.19
2023-04-28T14:55:19.614Z,100959.28
2023-04-28T14:57:50.756Z,100954.50
2023-04-28T15:00:24.090Z,100948.53
2023-04-28T15:02:51.254Z,100949.97
2023-04-28T15:05:24.591Z,100955.28
2023-04-28T15:07:51.880Z,100952.31
2023-04-28T15:10:18.857Z,100940.00
2023-04-28T15:12:49.158Z,100941.69
2023-04-28T15:15:17.033Z,100937.53
2023-04-28T15:17:52.706Z,100933.81
2023-04-28T15:20:46.843Z,100934.75
2023-04-28T15:23:14.404Z,100931.38
2023-04-28T15:25:41.340Z,100924.56
2023-04-28T15:28:09.179Z,100924.03
2023-04-28T15:30:37.049Z,100936.50
2023-04-28T15:33:30.917Z,100930.81
2023-04-28T15:35:58.246Z,100929.50
2023-04-28T15:38:25.367Z,100928.78
2023-04-28T15:40:52.282Z,100934.84
2023-04-28T15:43:19.373Z,100927.91
2023-04-28T15:45:47.297Z,100935.94
2023-04-28T15:48:27.408Z,100931.66
2023-04-28T15:51:25.659Z,100933.75
2023-04-28T15:53:57.814Z,100926.66
2023-04-28T15:56:28.211Z,100932.03
2023-04-28T15:58:56.055Z,100930.47
2023-04-28T16:01:23.540Z,100926.91
2023-04-28T16:04:10.779Z,100926.38
2023-04-28T16:07:12.745Z,100925.50
2023-04-28T16:09:40.717Z,100928.72
2023-04-28T16:12:15.466Z,100934.31
2023-04-28T16:14:42.570Z,100935.31
2023-04-28T16:17:09.665Z,100936.50
2023-04-28T16:19:37.125Z,100926.25
2023-04-28T16:22:04.124Z,100934.53
2023-04-28T16:24:32.395Z,100936.03
2023-04-28T16:29:42.037Z,100936.72
2023-04-28T16:32:09.446Z,100951.31
2023-04-28T16:34:38.103Z,100951.84
2023-04-28T16:37:06.691Z,100948.16
2023-04-28T16:39:33.865Z,100935.09
2023-04-28T16:42:01.202Z,100930.13
2023-04-28T16:44:32.026Z,100929.94
2023-04-28T16:47:03.307Z,100923.41
2023-04-28T16:49:30.945Z,100923.06
2023-04-28T16:52:06.781Z,100926.13
2023-04-28T16:54:34.039Z,100924.84
2023-04-28T16:57:05.388Z,100927.03
2023-04-28T16:59:36.476Z,100917.22
2023-04-28T17:02:09.232Z,100913.03
2023-04-28T17:04:39.801Z,100913.44
2023-04-28T17:07:10.354Z,100906.47
2023-04-28T17:09:38.263Z,100912.66
2023-04-28T17:12:06.187Z,100915.91
2023-04-28T17:14:33.356Z,100926.81
2023-04-28T17:17:06.937Z,100929.91
2023-04-28T17:19:35.263Z,100931.66
2023-04-28T17:22:03.321Z,100921.00
2023-04-28T17:24:30.976Z,100909.69
2023-04-28T17:27:03.800Z,100915.28
2023-04-28T17:29:32.001Z,100927.13
2023-04-28T17:31:59.345Z,100917.25
2023-04-28T17:34:27.237Z,100903.19
2023-04-28T17:36:54.218Z,100905.22
2023-04-28T17:39:21.414Z,100916.91
2023-04-28T17:41:48.656Z,100928.41
2023-04-28T17:44:16.676Z,100926.19
2023-04-28T17:46:44.186Z,100928.06
2023-04-28T17:49:20.779Z,100926.53
2023-04-28T17:51:47.892Z,100919.41
2023-04-28T17:54:15.120Z,100919.75
2023-04-28T17:56:42.650Z,100914.78
2023-04-28T17:59:14.787Z,100907.97
2023-04-28T18:01:43.250Z,100919.50
2023-04-28T18:04:12.321Z,100927.69
2023-04-28T18:06:40.679Z,100927.03
2023-04-28T18:09:09.599Z,100931.66
2023-04-28T18:11:37.408Z,100924.91
2023-04-28T18:14:11.464Z,100929.47
2023-04-28T18:16:47.847Z,100925.28
2023-04-28T18:19:40.414Z,100935.34
2023-04-28T18:22:09.271Z,100945.88
2023-04-28T18:24:42.038Z,100941.72
2023-04-28T18:27:11.877Z,100947.84
2023-04-28T18:29:56.299Z,100944.47
2023-04-28T18:32:25.650Z,100953.34
2023-04-28T18:35:08.759Z,100956.19
2023-04-28T18:38:15.550Z,100966.13
2023-04-28T18:40:42.566Z,100970.56
2023-04-28T18:43:34.428Z,100967.28
2023-04-28T18:46:51.325Z,100977.97
2023-04-28T18:50:09.267Z,100989.16
2023-04-28T18:52:36.513Z,100984.06
2023-04-28T18:55:12.451Z,100976.41
2023-04-28T18:57:40.747Z,100979.34
2023-04-28T19:00:10.776Z,100977.56
2023-04-28T19:02:38.434Z,100976.09
2023-04-28T19:05:06.010Z,100986.06
2023-04-28T19:07:41.678Z,100995.88
2023-04-28T19:10:09.512Z,100997.72
2023-04-28T19:12:38.115Z,100999.63
2023-04-28T19:15:11.100Z,101000.31
2023-04-28T19:18:09.900Z,100993.09
2023-04-28T19:20:37.634Z,101000.44
2023-04-28T19:23:41.733Z,100997.28
2023-04-28T19:26:10.040Z,100992.06
2023-04-28T19:32:49.435Z,101006.34
2023-04-28T19:35:57.920Z,101015.28
2023-04-28T19:38:25.452Z,101006.56
2023-04-28T19:40:58.927Z,101011.63
2023-04-28T19:44:00.598Z,101011.88
2023-04-28T19:46:56.499Z,101015.75
2023-04-28T19:49:30.518Z,101028.25
2023-04-28T19:51:58.752Z,101030.97
2023-04-28T19:54:28.741Z,101030.75
2023-04-28T20:03:47.739Z,101000.66
2023-04-28T20:06:15.813Z,101024.59
2023-04-28T20:08:44.273Z,101021.06
2023-04-28T20:11:12.065Z,101037.31
2023-04-28T20:14:14.021Z,101025.84
2023-04-28T20:16:41.262Z,101048.19
2023-04-28T20:19:08.494Z,101063.38
2023-04-28T20:22:21.723Z,101071.38
2023-04-28T20:24:48.824Z,101081.34
2023-04-28T20:35:13.642Z,101122.44
2023-04-28T20:38:13.333Z,101131.41
2023-04-28T20:40:41.561Z,101140.94
2023-04-28T20:43:17.665Z,101149.25
2023-04-28T20:45:46.675Z,101150.97
2023-04-28T20:48:14.345Z,101152.78
2023-04-28T20:50:43.218Z,101143.22
2023-04-28T20:53:10.364Z,101147.88
2023-04-28T20:55:37.858Z,101148.72
2023-04-28T20:58:47.540Z,101145.25
2023-04-28T21:02:00.441Z,101134.78
2023-04-28T21:04:54.894Z,101155.50
2023-04-28T21:07:47.580Z,101159.88
2023-04-28T21:10:16.452Z,101152.75
2023-04-28T21:13:11.054Z,101155.56
2023-04-28T21:15:38.756Z,101149.22
2023-04-28T21:18:05.926Z,101154.75
2023-04-28T21:24:27.542Z,101144.31
2023-04-28T21:27:46.053Z,101143.56
2023-04-28T21:30:40.883Z,101173.69
2023-04-28T21:33:08.235Z,101199.47
2023-04-28T21:35:38.723Z,101160.56
2023-04-28T21:38:11.270Z,101133.22
2023-04-28T21:40:44.138Z,101134.34
2023-04-28T21:43:18.658Z,101153.13
2023-04-28T21:45:49.657Z,101162.97
2023-04-28T21:48:18.129Z,101171.97
2023-04-28T21:50:45.575Z,101175.75
2023-04-28T21:53:13.218Z,101192.44
2023-04-28T21:55:40.338Z,101196.91
2023-04-28T21:58:08.214Z,101194.31
2023-04-28T22:00:39.032Z,101187.38
2023-04-28T22:03:06.467Z,101174.03
2023-04-28T22:05:33.917Z,101168.75
2023-04-28T22:08:10.346Z,101166.94
2023-04-28T22:11:06.999Z,101163.53
2023-04-28T22:14:15.183Z,101160.00
2023-04-28T22:16:49.031Z,101158.22
2023-04-28T22:19:17.417Z,101161.81
2023-04-28T22:21:45.651Z,101163.72
2023-04-28T22:27:45.836Z,101189.31
2023-04-28T22:30:13.212Z,101205.25
2023-04-28T22:32:47.968Z,101210.56
2023-04-28T22:35:52.250Z,101211.44
2023-04-28T22:38:59.513Z,101227.44
2023-04-28T22:41:58.436Z,101231.00
2023-04-28T22:44:25.643Z,101234.63
2023-04-28T22:47:11.118Z,101237.22
2023-04-28T22:53:37.591Z,101251.41
2023-04-28T22:56:54.591Z,101247.06
2023-04-28T23:03:05.397Z,101236.63
2023-04-28T23:05:36.811Z,101247.16
2023-04-28T23:08:12.452Z,101264.03
2023-04-28T23:11:11.162Z,101265.81
2023-04-28T23:13:38.356Z,101249.94
2023-04-28T23:19:20.990Z,101211.16
2023-04-28T23:21:48.103Z,101216.47
2023-04-28T23:28:14.605Z,101236.00
2023-04-28T23:30:41.625Z,101230.69
2023-04-28T23:33:11.242Z,101235.13
2023-04-28T23:35:38.416Z,101206.22
2023-04-28T23:38:05.513Z,101250.16
2023-04-28T23:41:01.272Z,101241.41
2023-04-28T23:43:28.947Z,101239.66
2023-04-28T23:45:56.162Z,101238.78
2023-04-28T23:48:23.450Z,101232.66
2023-04-28T23:50:50.796Z,101227.38
2023-04-28T23:53:18.035Z,101228.25
2023-04-28T23:55:45.135Z,101235.34
2023-04-28T23:58:12.085Z,101230.94
